(°C)
10°
11°
11°
11°
11°
10°
10°
(°C)
VJV
VJV
VJV
VJV
V
V
V
(km/h)
16-25
16-22
15-21
13-19
12-20
12-21
12-23
(mm)
1
1
0
0
0
0
0
(%)
55
63
45
37
37
35
36

Výška Slnka nad obzorom

/ 21.5°
sun-icon
UV 0
06:30
18:49
Zmenšujúci sa polmesiac (198°)
19:33
07:43

Správy METAR pre lokalitu Ulyanovsk Baratayevka Airport (UWLL)

Čas Podmienky Teplota/
Rosný bod
Vietor Viditeľnosť Počasie Oblaky Tlak Zmeniť Nespracované
LIFR 10°C / 9°C 140º 8kt 6000m - Overcast 400ft 1016 No Significant change. Runway 20: Wet or puddles, 51-100% contamination with 2mm, friction coefficient 0.50. UWLL 221200Z 14004MPS 6000 OVC004 10/09 Q1016 R20/290250 NOSIG RMK QFE752/1002
IFR 10°C / 9°C 140º 10kt 8000m Light Rain 1.00mm precipitation Vertical Visibility of 0ft. 1016 No Significant change. Runway 20: Wet or puddles, 51-100% contamination with 2mm, friction coefficient 0.50. UWLL 221130Z 14005MPS 8000 -RA OVC008 10/09 Q1016 R20/290250 NOSIG RMK QFE752/1002
IFR 10°C / 9°C 140º variable 100º to 170º 8kt 8000m Light Rain 1.00mm precipitation Vertical Visibility of 0ft. 1016 No Significant change. Runway 20: Wet or puddles, 51-100% contamination with 2mm, friction coefficient 0.50. UWLL 221100Z 14004MPS 100V170 8000 -RA OVC008 10/09 Q1016 R20/290250 NOSIG RMK QFE751/1002
LIFR 10°C / 10°C 140º 10kt 8000m Light Rain 1.00mm precipitation Vertical Visibility of 0ft. 1016 No Significant change. Runway 20: Wet or puddles, 51-100% contamination with 2mm, friction coefficient 0.50. UWLL 221030Z 14005MPS 8000 -RA OVC004 10/10 Q1016 R20/290250 NOSIG RMK QFE751/1002
IFR 11°C / 10°C 140º 8kt 6000m Light Rain 1.00mm precipitation Vertical Visibility of 0ft. 1015 No Significant change. Runway 20: Wet or puddles, 51-100% contamination with 2mm, friction coefficient 0.50. UWLL 221000Z 14004MPS 6000 -RA OVC007 11/10 Q1015 R20/290250 NOSIG RMK QFE751/1001
IFR 11°C / 10°C 140º 8kt 6000m Light Rain 1.00mm precipitation Vertical Visibility of 0ft. 1015 No Significant change. Runway 20: Wet or puddles, 51-100% contamination with 2mm, friction coefficient 0.50. UWLL 220930Z 14004MPS 6000 -RA OVC009 11/10 Q1015 R20/290250 NOSIG RMK QFE751/1001
IFR 11°C / 10°C 130º 10kt 5000m Mist Vertical Visibility of 0ft. 1015 No Significant change. Runway 20: Wet or puddles, 51-100% contamination with 2mm, friction coefficient 0.50. UWLL 220900Z 13005MPS 5000 BR OVC007 11/10 Q1015 R20/290250 NOSIG RMK QFE751/1001
IFR 11°C / 10°C 130º 10kt 6000m - Overcast 500ft 1015 No Significant change. Runway 20: Wet or puddles, 51-100% contamination with 2mm, friction coefficient 0.50. UWLL 220830Z 13005MPS 6000 OVC005 11/10 Q1015 R20/290250 NOSIG RMK QFE751/1001
LIFR 11°C / 10°C 150º 8kt 2900m Light Rain Mist 1.00mm precipitation Vertical Visibility of 0ft. 1015 No Significant change. Runway 20: Wet or puddles, 51-100% contamination with 2mm, friction coefficient 0.50. UWLL 220800Z 15004MPS 2900 -RA BR OVC003 11/10 Q1015 R20/290250 NOSIG RMK QBB090 QFE751/1001
MVFR 11°C / 10°C 140º 10kt 6000m Light Rain 1.00mm precipitation Vertical Visibility of 0ft. 1014 No Significant change. Runway 20: Wet or puddles, 51-100% contamination with 2mm, friction coefficient 0.50. UWLL 220730Z 14005MPS 6000 -RA OVC011 11/10 Q1014 R20/290250 NOSIG RMK QFE750/1000
MVFR 11°C / 10°C 140º 8kt 8000m Light Showers Rain 3.00mm precipitation Vertical Visibility of 0ft. 1014 No Significant change. Runway 20: Wet or puddles, 51-100% contamination with 2mm, friction coefficient 0.50. UWLL 220700Z 14004MPS 8000 -SHRA BKN010 BKN020CB 11/10 Q1014 R20/290250 NOSIG RMK QFE750/1000
IFR 11°C / 10°C 130º 6kt 6000m Light Showers Rain 3.00mm precipitation Vertical Visibility of 0ft. 1013 No Significant change. Runway 20: Wet or puddles, 51-100% contamination with 2mm, friction coefficient 0.50. UWLL 220630Z 13003MPS 6000 -SHRA BKN009 BKN020CB 11/10 Q1013 R20/290250 NOSIG RMK QFE750/1000
MVFR 11°C / 10°C 140º 8kt 8000m Light Showers Rain 3.00mm precipitation Vertical Visibility of 0ft. 1013 No Significant change. Runway 20: Wet or puddles, 51-100% contamination with 2mm, friction coefficient 0.50. UWLL 220600Z 14004MPS 8000 -SHRA BKN011 BKN020CB 11/10 Q1013 R20/290250 NOSIG RMK QFE749/0999
MVFR 10°C / 9°C 130º 10kt 8000m Light Showers Rain 3.00mm precipitation Vertical Visibility of 0ft. 1012 No Significant change. Runway 20: Wet or puddles, 51-100% contamination with 2mm, friction coefficient 0.50. UWLL 220530Z 13005MPS 8000 -SHRA SCT012 BKN020CB 10/09 Q1012 R20/290250 NOSIG RMK QFE749/0999
VFR 9°C / 8°C 110º 10kt >10km Light Showers Rain 3.00mm precipitation Vertical Visibility of 0ft. 1012 No Significant change. Runway 20: Wet or puddles, 51-100% contamination with 2mm, friction coefficient 0.50. UWLL 220500Z 11005MPS 9999 -SHRA BKN040CB 09/08 Q1012 R20/290250 NOSIG RMK QFE749/0999
VFR 10°C / 7°C 100º 12kt >10km Light Showers Rain 3.00mm precipitation Vertical Visibility of 0ft. 1012 No Significant change. Runway 20: Wet or puddles, 51-100% contamination with 2mm, friction coefficient 0.50. UWLL 220430Z 10006MPS 9999 -SHRA BKN040CB 10/07 Q1012 R20/290250 NOSIG RMK QFE749/0999
VFR 9°C / 6°C 100º 12kt 9000m Light Rain 1.00mm precipitation Vertical Visibility of 0ft. 1012 No Significant change. Runway 20: Wet or puddles, 51-100% contamination with 2mm, friction coefficient 0.50. UWLL 220400Z 10006MPS 9000 -RA BKN043 09/06 Q1012 R20/290250 NOSIG RMK QFE749/0999
MVFR 9°C / 6°C 110º 12kt 9000m Light Rain 1.00mm precipitation Vertical Visibility of 0ft. 1012 No Significant change. Runway 20: Wet or puddles, 51-100% contamination with 2mm, friction coefficient 0.50. UWLL 220330Z 11006MPS 9000 -RA BKN030 09/06 Q1012 R20/290250 NOSIG RMK QFE749/0999
VFR 9°C / 5°C 90º 10kt >10km Light Rain 1.00mm precipitation Vertical Visibility of 0ft. 1012 No Significant change. Runway 20: Wet or puddles, 51-100% contamination with 2mm, friction coefficient 0.50. UWLL 220300Z 09005MPS 9999 -RA BKN038 09/05 Q1012 R20/290250 NOSIG RMK QFE749/0999
VFR 9°C / 5°C 100º variable 080º to 140º 8kt >10km Light Rain 1.00mm precipitation Vertical Visibility of 0ft. 1012 No Significant change. Runway 20: Wet or puddles, 51-100% contamination with 2mm, friction coefficient 0.50. UWLL 220230Z 10004MPS 080V140 9999 -RA BKN040 09/05 Q1012 R20/290250 NOSIG RMK QFE749/0999
VFR 9°C / 4°C 120º variable 080º to 160º 8kt >10km Light Rain 1.00mm precipitation Vertical Visibility of 0ft. 1012 No Significant change. Runway 02: Wet or puddles, 51-100% contamination with 2mm, friction coefficient 0.50. UWLL 220200Z 12004MPS 080V160 9999 -RA SCT040 09/04 Q1012 R02/290250 NOSIG RMK QFE747/0996
VFR 10°C / 4°C 100º 12kt >10km Light Rain 1.00mm precipitation Vertical Visibility of 0ft. 1013 No Significant change. Runway 02: Clear and dry, 51-100% contamination with <1mm, friction coefficient 0.65. UWLL 220130Z 10006MPS 9999 -RA SCT040 10/04 Q1013 R02/090065 NOSIG RMK QFE747/0997
VFR 10°C / 3°C 100º 10kt >10km Light Rain 1.00mm precipitation Vertical Visibility of 0ft. 1013 No Significant change. Runway 02: Clear and dry, 51-100% contamination with <1mm, friction coefficient 0.65. UWLL 220100Z 10005MPS 9999 -RA SCT040 10/03 Q1013 R02/090065 NOSIG RMK QFE747/0997
VFR 10°C / 3°C 110º 10kt >10km Light Rain 1.00mm precipitation Vertical Visibility of 0ft. 1013 No Significant change. Runway 02: Clear and dry, 51-100% contamination with <1mm, friction coefficient 0.65. UWLL 220030Z 11005MPS 9999 -RA SCT040 10/03 Q1013 R02/090065 NOSIG RMK QFE747/0997

LIFR

10°C / 9°C

[Viac]
Vietor 140º 8kt
Viditeľnosť 6000m
Počasie -
Oblaky Overcast 400ft
Tlak 1016
Zmeniť No Significant change. Runway 20: Wet or puddles, 51-100% contamination with 2mm, friction coefficient 0.50.
Nespracované UWLL 221200Z 14004MPS 6000 OVC004 10/09 Q1016 R20/290250 NOSIG RMK QFE752/1002

IFR

10°C / 9°C

[Viac]
Vietor 140º 10kt
Viditeľnosť 8000m
Počasie Light Rain 1.00mm precipitation
Oblaky Vertical Visibility of 0ft.
Tlak 1016
Zmeniť No Significant change. Runway 20: Wet or puddles, 51-100% contamination with 2mm, friction coefficient 0.50.
Nespracované UWLL 221130Z 14005MPS 8000 -RA OVC008 10/09 Q1016 R20/290250 NOSIG RMK QFE752/1002

IFR

10°C / 9°C

[Viac]
Vietor 140º variable 100º to 170º 8kt
Viditeľnosť 8000m
Počasie Light Rain 1.00mm precipitation
Oblaky Vertical Visibility of 0ft.
Tlak 1016
Zmeniť No Significant change. Runway 20: Wet or puddles, 51-100% contamination with 2mm, friction coefficient 0.50.
Nespracované UWLL 221100Z 14004MPS 100V170 8000 -RA OVC008 10/09 Q1016 R20/290250 NOSIG RMK QFE751/1002

LIFR

10°C / 10°C

[Viac]
Vietor 140º 10kt
Viditeľnosť 8000m
Počasie Light Rain 1.00mm precipitation
Oblaky Vertical Visibility of 0ft.
Tlak 1016
Zmeniť No Significant change. Runway 20: Wet or puddles, 51-100% contamination with 2mm, friction coefficient 0.50.
Nespracované UWLL 221030Z 14005MPS 8000 -RA OVC004 10/10 Q1016 R20/290250 NOSIG RMK QFE751/1002

IFR

11°C / 10°C

[Viac]
Vietor 140º 8kt
Viditeľnosť 6000m
Počasie Light Rain 1.00mm precipitation
Oblaky Vertical Visibility of 0ft.
Tlak 1015
Zmeniť No Significant change. Runway 20: Wet or puddles, 51-100% contamination with 2mm, friction coefficient 0.50.
Nespracované UWLL 221000Z 14004MPS 6000 -RA OVC007 11/10 Q1015 R20/290250 NOSIG RMK QFE751/1001

IFR

11°C / 10°C

[Viac]
Vietor 140º 8kt
Viditeľnosť 6000m
Počasie Light Rain 1.00mm precipitation
Oblaky Vertical Visibility of 0ft.
Tlak 1015
Zmeniť No Significant change. Runway 20: Wet or puddles, 51-100% contamination with 2mm, friction coefficient 0.50.
Nespracované UWLL 220930Z 14004MPS 6000 -RA OVC009 11/10 Q1015 R20/290250 NOSIG RMK QFE751/1001

IFR

11°C / 10°C

[Viac]
Vietor 130º 10kt
Viditeľnosť 5000m
Počasie Mist
Oblaky Vertical Visibility of 0ft.
Tlak 1015
Zmeniť No Significant change. Runway 20: Wet or puddles, 51-100% contamination with 2mm, friction coefficient 0.50.
Nespracované UWLL 220900Z 13005MPS 5000 BR OVC007 11/10 Q1015 R20/290250 NOSIG RMK QFE751/1001

IFR

11°C / 10°C

[Viac]
Vietor 130º 10kt
Viditeľnosť 6000m
Počasie -
Oblaky Overcast 500ft
Tlak 1015
Zmeniť No Significant change. Runway 20: Wet or puddles, 51-100% contamination with 2mm, friction coefficient 0.50.
Nespracované UWLL 220830Z 13005MPS 6000 OVC005 11/10 Q1015 R20/290250 NOSIG RMK QFE751/1001

LIFR

11°C / 10°C

[Viac]
Vietor 150º 8kt
Viditeľnosť 2900m
Počasie Light Rain Mist 1.00mm precipitation
Oblaky Vertical Visibility of 0ft.
Tlak 1015
Zmeniť No Significant change. Runway 20: Wet or puddles, 51-100% contamination with 2mm, friction coefficient 0.50.
Nespracované UWLL 220800Z 15004MPS 2900 -RA BR OVC003 11/10 Q1015 R20/290250 NOSIG RMK QBB090 QFE751/1001

MVFR

11°C / 10°C

[Viac]
Vietor 140º 10kt
Viditeľnosť 6000m
Počasie Light Rain 1.00mm precipitation
Oblaky Vertical Visibility of 0ft.
Tlak 1014
Zmeniť No Significant change. Runway 20: Wet or puddles, 51-100% contamination with 2mm, friction coefficient 0.50.
Nespracované UWLL 220730Z 14005MPS 6000 -RA OVC011 11/10 Q1014 R20/290250 NOSIG RMK QFE750/1000

MVFR

11°C / 10°C

[Viac]
Vietor 140º 8kt
Viditeľnosť 8000m
Počasie Light Showers Rain 3.00mm precipitation
Oblaky Vertical Visibility of 0ft.
Tlak 1014
Zmeniť No Significant change. Runway 20: Wet or puddles, 51-100% contamination with 2mm, friction coefficient 0.50.
Nespracované UWLL 220700Z 14004MPS 8000 -SHRA BKN010 BKN020CB 11/10 Q1014 R20/290250 NOSIG RMK QFE750/1000

IFR

11°C / 10°C

[Viac]
Vietor 130º 6kt
Viditeľnosť 6000m
Počasie Light Showers Rain 3.00mm precipitation
Oblaky Vertical Visibility of 0ft.
Tlak 1013
Zmeniť No Significant change. Runway 20: Wet or puddles, 51-100% contamination with 2mm, friction coefficient 0.50.
Nespracované UWLL 220630Z 13003MPS 6000 -SHRA BKN009 BKN020CB 11/10 Q1013 R20/290250 NOSIG RMK QFE750/1000

MVFR

11°C / 10°C

[Viac]
Vietor 140º 8kt
Viditeľnosť 8000m
Počasie Light Showers Rain 3.00mm precipitation
Oblaky Vertical Visibility of 0ft.
Tlak 1013
Zmeniť No Significant change. Runway 20: Wet or puddles, 51-100% contamination with 2mm, friction coefficient 0.50.
Nespracované UWLL 220600Z 14004MPS 8000 -SHRA BKN011 BKN020CB 11/10 Q1013 R20/290250 NOSIG RMK QFE749/0999

MVFR

10°C / 9°C

[Viac]
Vietor 130º 10kt
Viditeľnosť 8000m
Počasie Light Showers Rain 3.00mm precipitation
Oblaky Vertical Visibility of 0ft.
Tlak 1012
Zmeniť No Significant change. Runway 20: Wet or puddles, 51-100% contamination with 2mm, friction coefficient 0.50.
Nespracované UWLL 220530Z 13005MPS 8000 -SHRA SCT012 BKN020CB 10/09 Q1012 R20/290250 NOSIG RMK QFE749/0999

VFR

9°C / 8°C

[Viac]
Vietor 110º 10kt
Viditeľnosť >10km
Počasie Light Showers Rain 3.00mm precipitation
Oblaky Vertical Visibility of 0ft.
Tlak 1012
Zmeniť No Significant change. Runway 20: Wet or puddles, 51-100% contamination with 2mm, friction coefficient 0.50.
Nespracované UWLL 220500Z 11005MPS 9999 -SHRA BKN040CB 09/08 Q1012 R20/290250 NOSIG RMK QFE749/0999

VFR

10°C / 7°C

[Viac]
Vietor 100º 12kt
Viditeľnosť >10km
Počasie Light Showers Rain 3.00mm precipitation
Oblaky Vertical Visibility of 0ft.
Tlak 1012
Zmeniť No Significant change. Runway 20: Wet or puddles, 51-100% contamination with 2mm, friction coefficient 0.50.
Nespracované UWLL 220430Z 10006MPS 9999 -SHRA BKN040CB 10/07 Q1012 R20/290250 NOSIG RMK QFE749/0999

VFR

9°C / 6°C

[Viac]
Vietor 100º 12kt
Viditeľnosť 9000m
Počasie Light Rain 1.00mm precipitation
Oblaky Vertical Visibility of 0ft.
Tlak 1012
Zmeniť No Significant change. Runway 20: Wet or puddles, 51-100% contamination with 2mm, friction coefficient 0.50.
Nespracované UWLL 220400Z 10006MPS 9000 -RA BKN043 09/06 Q1012 R20/290250 NOSIG RMK QFE749/0999

MVFR

9°C / 6°C

[Viac]
Vietor 110º 12kt
Viditeľnosť 9000m
Počasie Light Rain 1.00mm precipitation
Oblaky Vertical Visibility of 0ft.
Tlak 1012
Zmeniť No Significant change. Runway 20: Wet or puddles, 51-100% contamination with 2mm, friction coefficient 0.50.
Nespracované UWLL 220330Z 11006MPS 9000 -RA BKN030 09/06 Q1012 R20/290250 NOSIG RMK QFE749/0999

VFR

9°C / 5°C

[Viac]
Vietor 90º 10kt
Viditeľnosť >10km
Počasie Light Rain 1.00mm precipitation
Oblaky Vertical Visibility of 0ft.
Tlak 1012
Zmeniť No Significant change. Runway 20: Wet or puddles, 51-100% contamination with 2mm, friction coefficient 0.50.
Nespracované UWLL 220300Z 09005MPS 9999 -RA BKN038 09/05 Q1012 R20/290250 NOSIG RMK QFE749/0999

VFR

9°C / 5°C

[Viac]
Vietor 100º variable 080º to 140º 8kt
Viditeľnosť >10km
Počasie Light Rain 1.00mm precipitation
Oblaky Vertical Visibility of 0ft.
Tlak 1012
Zmeniť No Significant change. Runway 20: Wet or puddles, 51-100% contamination with 2mm, friction coefficient 0.50.
Nespracované UWLL 220230Z 10004MPS 080V140 9999 -RA BKN040 09/05 Q1012 R20/290250 NOSIG RMK QFE749/0999

VFR

9°C / 4°C

[Viac]
Vietor 120º variable 080º to 160º 8kt
Viditeľnosť >10km
Počasie Light Rain 1.00mm precipitation
Oblaky Vertical Visibility of 0ft.
Tlak 1012
Zmeniť No Significant change. Runway 02: Wet or puddles, 51-100% contamination with 2mm, friction coefficient 0.50.
Nespracované UWLL 220200Z 12004MPS 080V160 9999 -RA SCT040 09/04 Q1012 R02/290250 NOSIG RMK QFE747/0996

VFR

10°C / 4°C

[Viac]
Vietor 100º 12kt
Viditeľnosť >10km
Počasie Light Rain 1.00mm precipitation
Oblaky Vertical Visibility of 0ft.
Tlak 1013
Zmeniť No Significant change. Runway 02: Clear and dry, 51-100% contamination with <1mm, friction coefficient 0.65.
Nespracované UWLL 220130Z 10006MPS 9999 -RA SCT040 10/04 Q1013 R02/090065 NOSIG RMK QFE747/0997

VFR

10°C / 3°C

[Viac]
Vietor 100º 10kt
Viditeľnosť >10km
Počasie Light Rain 1.00mm precipitation
Oblaky Vertical Visibility of 0ft.
Tlak 1013
Zmeniť No Significant change. Runway 02: Clear and dry, 51-100% contamination with <1mm, friction coefficient 0.65.
Nespracované UWLL 220100Z 10005MPS 9999 -RA SCT040 10/03 Q1013 R02/090065 NOSIG RMK QFE747/0997

VFR

10°C / 3°C

[Viac]
Vietor 110º 10kt
Viditeľnosť >10km
Počasie Light Rain 1.00mm precipitation
Oblaky Vertical Visibility of 0ft.
Tlak 1013
Zmeniť No Significant change. Runway 02: Clear and dry, 51-100% contamination with <1mm, friction coefficient 0.65.
Nespracované UWLL 220030Z 11005MPS 9999 -RA SCT040 10/03 Q1013 R02/090065 NOSIG RMK QFE747/0997

Správy TAF pre lokalitu Ulyanovsk Baratayevka Airport (UWLL)

From till


Maximum Temperature 12ºC on . Minimum Temperature 7ºC on .
From till Wind 90º 12kt. Gust 25kt. Visibility 5000m. Light Rain Mist . Broken Clouds 1200ft.
Temporarly from till Wind 140º 6kt. Visibility 305.775m. Fog . Overcast 200ft.
Temporarly from till Wind 140º 17kt.
Becoming from till Wind 130º 14kt. Gust 27kt. Visibility 5000m. Light Rain Mist . Broken Clouds 1200ft.

Nespracované: TAF UWLL 221057Z 2212/2312 09006G13MPS 5000 -RA BR BKN012 TX12/2308Z TN07/2302Z TEMPO 2212/2220 14003MPS 0300 FG OVC002 TEMPO 2220/2306 14009MPS BECMG 2306/2307 13007G14MPS

Aktuálne satelitné snímky a snímky zrážok pre lokalitu Ulyanovsk Baratayevka Airport, Rusko

Značka polohy je umiestnená naUlyanovsk Baratayevka Airport. [Viac]

Satelitné snímky zhotovované v reálnom čase využívajú viditeľné svetlo počas dňa a infračervené žiarenie počas noci. Vzhľadom na to, že infračervené žiarenie zisťuje teplotné rozdiely, snímka v noci nie je tmavá. Nízke oblaky a hmlu je, žiaľ, ťažké odlíšiť od prízemných teplôt, preto môžu byť počas noci takmer neviditeľné. Meteosat satelitné snímky pre Európu sú aktualizované v reálnom čase každých 5 minút. Snímky z GOES-16/GOES-17 (Severná a Južná Amerika) a Himawari (Ázia) sú aktualizované každých 10 minút.

Copyright 2021 EUMETSAT / meteoblue. / Copyright 2021 meteoblue

Radar a krátkodobá predpoveď zrážok pre Ulyanovsk Baratayevka Airport

Mrholenie
Slabý
Mierne
Ťažké
Veľmi ťažké
Krúpy

Značka polohy je umiestnená na Ulyanovsk Baratayevka Airport. Táto animácia ukazuje zrážky pozorované radarom za poslednú hodinu a tiež 1h predpoveď. Mrholenie alebo slabé sneženie môže byť pre radar neviditeľné. Intenzita zrážok je farebne označená od svetlomodrej po oranžovú.